Time;durP1;ratioP1;P1;durP2;ratioP2;P2;SDS_P1;SDS_P2;PMS_P1;PMS_P2;Temp;Humidity;BMP_temperature;BMP_pressure;BME280_temperature;BME280_humidity;BME280_pressure;Samples;Min_cycle;Max_cycle;Signal;HPM_P1;HPM_P2
2021/07/23 00:00:28;;;;;;;8.57;4.87;;;16.30;99.90;;;;;;4972344;28;20240;-73
2021/07/23 00:02:53;;;;;;;6.50;4.43;;;16.30;99.90;;;;;;4972495;28;20173;-73
2021/07/23 00:05:19;;;;;;;6.97;5.00;;;16.20;99.90;;;;;;4972420;28;20203;-73
2021/07/23 00:07:45;;;;;;;5.20;4.70;;;16.20;99.90;;;;;;4972447;28;20180;-73
2021/07/23 00:10:11;;;;;;;7.00;4.57;;;16.20;99.90;;;;;;4956036;28;20208;-73
2021/07/23 00:12:36;;;;;;;5.17;4.50;;;16.20;99.90;;;;;;4956124;28;20181;-73
2021/07/23 00:15:02;;;;;;;6.67;4.77;;;16.20;99.90;;;;;;4972161;28;20562;-73
2021/07/23 00:17:28;;;;;;;4.77;4.27;;;16.20;99.90;;;;;;4972412;28;20506;-73
2021/07/23 00:19:53;;;;;;;5.47;4.97;;;16.20;99.90;;;;;;4973134;28;20212;-73
2021/07/23 00:22:19;;;;;;;8.27;4.80;;;16.20;99.90;;;;;;4972153;28;20186;-73
2021/07/23 00:24:44;;;;;;;5.50;4.87;;;16.20;99.90;;;;;;4972355;28;20256;-73
2021/07/23 00:27:10;;;;;;;5.60;4.90;;;16.20;99.90;;;;;;4973535;28;20207;-73
2021/07/23 00:29:35;;;;;;;7.30;4.60;;;16.20;99.90;;;;;;4972400;28;20220;-73
2021/07/23 00:32:01;;;;;;;5.50;4.20;;;16.20;99.90;;;;;;4972396;28;20244;-73
2021/07/23 00:34:26;;;;;;;7.23;4.97;;;16.10;99.90;;;;;;4972397;28;20200;-73
2021/07/23 00:36:52;;;;;;;7.47;5.23;;;16.10;99.90;;;;;;4971811;28;20231;-73
2021/07/23 00:39:17;;;;;;;6.83;4.90;;;16.10;99.90;;;;;;4971277;28;20173;-73
2021/07/23 00:41:43;;;;;;;7.10;5.40;;;16.10;99.90;;;;;;4971911;28;20185;-73
2021/07/23 00:44:08;;;;;;;8.07;5.10;;;16.10;99.90;;;;;;4973291;28;20184;-73
2021/07/23 00:46:34;;;;;;;6.80;5.17;;;16.00;99.90;;;;;;4971850;28;20270;-73
2021/07/23 00:48:59;;;;;;;7.50;5.10;;;16.00;99.90;;;;;;4971744;28;20175;-73
2021/07/23 00:51:25;;;;;;;5.53;4.63;;;16.00;99.90;;;;;;4971928;28;20181;-73
2021/07/23 00:53:50;;;;;;;6.87;5.03;;;16.00;99.90;;;;;;4971970;28;20188;-73
2021/07/23 00:56:16;;;;;;;6.93;5.13;;;16.00;99.90;;;;;;4971921;28;20205;-73
2021/07/23 00:58:42;;;;;;;6.10;5.50;;;15.90;99.90;;;;;;4971529;28;20193;-73
2021/07/23 01:01:07;;;;;;;8.00;5.80;;;15.90;99.90;;;;;;4971646;28;20215;-73
2021/07/23 01:03:33;;;;;;;7.00;5.17;;;15.80;99.90;;;;;;4971825;28;20189;-73
2021/07/23 01:05:58;;;;;;;7.60;5.57;;;15.80;99.90;;;;;;4971683;28;20197;-73
2021/07/23 01:08:24;;;;;;;9.73;5.37;;;15.80;99.90;;;;;;4971645;28;20261;-73
2021/07/23 01:10:49;;;;;;;9.63;5.93;;;15.70;99.90;;;;;;4971550;28;20188;-73
2021/07/23 01:13:15;;;;;;;8.77;5.50;;;15.70;99.90;;;;;;4971745;28;20244;-73
2021/07/23 01:15:41;;;;;;;9.13;5.60;;;15.60;99.90;;;;;;4971563;28;20235;-73
2021/07/23 01:18:06;;;;;;;9.83;5.57;;;15.60;99.90;;;;;;4972813;28;20246;-73
2021/07/23 01:20:32;;;;;;;9.30;5.40;;;15.50;99.90;;;;;;4955179;28;20583;-73
2021/07/23 01:22:58;;;;;;;8.33;5.33;;;15.60;99.90;;;;;;4971524;28;20276;-73
2021/07/23 01:25:23;;;;;;;6.77;5.03;;;15.50;99.90;;;;;;4971639;28;20214;-73
2021/07/23 01:27:52;;;;;;;8.07;4.83;;;15.50;99.90;;;;;;4971589;28;20184;-73
2021/07/23 01:30:20;;;;;;;7.10;4.70;;;15.40;99.90;;;;;;4955447;28;20181;-73
2021/07/23 01:32:45;;;;;;;7.33;5.47;;;15.40;99.90;;;;;;4971523;28;20181;-73
2021/07/23 01:35:11;;;;;;;6.63;5.77;;;15.40;99.90;;;;;;4971275;28;20211;-73
2021/07/23 01:37:41;;;;;;;11.97;5.67;;;15.30;99.90;;;;;;4972075;28;20185;-73
2021/07/23 01:40:07;;;;;;;9.23;6.30;;;15.30;99.90;;;;;;4955684;28;20292;-73
2021/07/23 01:42:32;;;;;;;7.30;5.67;;;15.20;99.90;;;;;;4971430;28;20631;-73
2021/07/23 01:44:58;;;;;;;8.27;5.10;;;15.20;99.90;;;;;;4955366;28;20177;-73
2021/07/23 01:47:23;;;;;;;10.13;5.70;;;15.20;99.90;;;;;;4971359;28;20203;-73
2021/07/23 01:49:49;;;;;;;9.83;5.83;;;15.10;99.90;;;;;;4971388;28;20580;-73
2021/07/23 01:52:14;;;;;;;6.43;5.00;;;15.10;99.90;;;;;;4973332;28;20196;-73
2021/07/23 01:54:40;;;;;;;6.90;5.47;;;15.10;99.90;;;;;;4976258;28;20185;-73
2021/07/23 01:57:05;;;;;;;6.77;5.77;;;15.00;99.90;;;;;;4974734;28;20197;-73
2021/07/23 01:59:31;;;;;;;9.33;5.23;;;15.00;99.90;;;;;;4974788;28;20660;-73
2021/07/23 02:01:57;;;;;;;6.93;5.63;;;15.00;99.90;;;;;;4958671;28;20243;-73
2021/07/23 02:04:23;;;;;;;6.50;5.67;;;14.90;99.90;;;;;;4975293;28;20231;-73
2021/07/23 02:06:49;;;;;;;8.13;5.77;;;14.90;99.90;;;;;;4975820;28;20211;-73
2021/07/23 02:09:14;;;;;;;10.40;5.47;;;14.90;99.90;;;;;;4974456;28;20266;-73
2021/07/23 02:11:40;;;;;;;10.43;5.80;;;14.80;99.90;;;;;;4958497;28;20711;-73
2021/07/23 02:14:07;;;;;;;7.73;6.00;;;14.80;99.90;;;;;;4974575;28;20712;-73
2021/07/23 02:16:34;;;;;;;7.40;5.97;;;14.80;99.90;;;;;;4974430;28;20237;-73
2021/07/23 02:18:59;;;;;;;8.57;6.40;;;14.90;99.90;;;;;;4974367;28;20173;-73
2021/07/23 02:21:25;;;;;;;9.57;5.90;;;14.90;99.90;;;;;;4974554;28;20215;-73
2021/07/23 02:23:50;;;;;;;7.27;6.30;;;14.70;99.90;;;;;;4974393;28;20248;-73
2021/07/23 02:26:19;;;;;;;7.93;6.13;;;14.80;99.90;;;;;;4974310;28;20212;-73
2021/07/23 02:28:45;;;;;;;7.80;6.03;;;14.80;99.90;;;;;;4957845;28;20216;-73
2021/07/23 02:31:11;;;;;;;7.77;6.27;;;14.70;99.90;;;;;;4975642;28;20202;-73
2021/07/23 02:33:37;;;;;;;9.43;5.77;;;14.80;99.90;;;;;;4974382;28;20557;-73
2021/07/23 02:36:03;;;;;;;8.73;6.13;;;14.70;99.90;;;;;;4973954;28;20762;-73
2021/07/23 02:38:28;;;;;;;6.63;6.00;;;14.70;99.90;;;;;;4974078;28;20185;-73
2021/07/23 02:40:56;;;;;;;7.57;5.80;;;14.60;99.90;;;;;;4973833;28;20215;-73
2021/07/23 02:43:22;;;;;;;9.07;6.03;;;14.70;99.90;;;;;;4974102;28;20188;-73
2021/07/23 02:45:48;;;;;;;8.03;5.77;;;14.60;99.90;;;;;;4973899;28;20201;-73
2021/07/23 02:48:14;;;;;;;8.73;5.57;;;14.50;99.90;;;;;;4974076;28;20223;-73
2021/07/23 02:50:39;;;;;;;8.27;6.10;;;14.50;99.90;;;;;;4973784;28;20181;-73
2021/07/23 02:53:05;;;;;;;8.57;6.00;;;14.50;99.90;;;;;;4974009;28;20188;-73
2021/07/23 02:55:30;;;;;;;8.40;5.80;;;14.40;99.90;;;;;;4975144;28;20252;-73
2021/07/23 02:57:56;;;;;;;9.13;6.27;;;14.40;99.90;;;;;;4974018;28;20189;-73
2021/07/23 03:00:22;;;;;;;8.67;6.13;;;14.30;99.90;;;;;;4957670;28;20260;-73
2021/07/23 03:02:48;;;;;;;9.73;6.20;;;14.30;99.90;;;;;;4957364;28;20273;-73
2021/07/23 03:05:14;;;;;;;9.70;6.93;;;14.30;99.90;;;;;;4973569;28;20209;-73
2021/07/23 03:07:39;;;;;;;8.20;6.57;;;14.30;99.90;;;;;;4973702;28;20182;-73
2021/07/23 03:10:05;;;;;;;7.77;6.93;;;14.30;99.90;;;;;;4973248;28;20191;-73
2021/07/23 03:12:32;;;;;;;7.43;6.20;;;14.20;99.90;;;;;;4956813;28;20668;-72
2021/07/23 03:14:58;;;;;;;10.50;6.63;;;14.20;99.90;;;;;;4973045;28;20224;-73
2021/07/23 03:17:23;;;;;;;9.00;6.60;;;14.20;99.90;;;;;;4973236;28;20627;-73
2021/07/23 03:19:49;;;;;;;9.50;6.43;;;14.20;99.90;;;;;;4973016;28;20212;-73
2021/07/23 03:22:14;;;;;;;8.50;6.47;;;14.10;99.90;;;;;;4973417;28;20316;-73
2021/07/23 03:24:40;;;;;;;10.23;6.97;;;14.10;99.90;;;;;;4973358;28;20176;-73
2021/07/23 03:27:06;;;;;;;8.50;7.07;;;14.10;99.90;;;;;;4974477;28;20209;-73
2021/07/23 03:29:31;;;;;;;7.90;6.77;;;14.10;99.90;;;;;;4974304;28;20173;-73
2021/07/23 03:31:57;;;;;;;8.63;7.00;;;14.10;99.90;;;;;;4973161;28;20187;-73
2021/07/23 03:34:22;;;;;;;10.67;7.20;;;14.10;99.90;;;;;;4957084;28;20266;-73
2021/07/23 03:36:48;;;;;;;7.70;6.93;;;14.00;99.90;;;;;;4956709;28;20226;-73
2021/07/23 03:39:13;;;;;;;8.17;6.83;;;14.00;99.90;;;;;;4973971;28;20264;-73
2021/07/23 03:41:39;;;;;;;11.00;7.70;;;14.00;99.90;;;;;;4972975;28;20188;-73
2021/07/23 03:44:05;;;;;;;10.87;7.50;;;14.00;99.90;;;;;;4974182;28;20189;-73
2021/07/23 03:46:30;;;;;;;9.13;7.20;;;14.00;99.90;;;;;;4974073;28;20208;-73
2021/07/23 03:48:57;;;;;;;9.07;7.30;;;14.00;99.90;;;;;;4972717;28;20208;-73
2021/07/23 03:51:22;;;;;;;9.70;6.70;;;13.90;99.90;;;;;;4974041;28;20201;-73
2021/07/23 03:53:48;;;;;;;8.97;7.70;;;14.00;99.90;;;;;;4972725;28;20219;-73
2021/07/23 03:56:13;;;;;;;11.10;7.30;;;13.90;99.90;;;;;;4972707;28;20204;-73
2021/07/23 03:58:39;;;;;;;9.20;7.87;;;14.00;99.90;;;;;;4972549;28;20232;-72
2021/07/23 04:01:05;;;;;;;10.27;7.00;;;14.00;99.90;;;;;;4973563;28;20664;-73
2021/07/23 04:03:32;;;;;;;10.27;7.27;;;14.00;99.90;;;;;;4972706;28;20263;-73
2021/07/23 04:05:58;;;;;;;9.93;7.13;;;14.00;99.90;;;;;;4956138;28;20201;-73
2021/07/23 04:08:24;;;;;;;11.00;7.47;;;13.90;99.90;;;;;;4971981;28;20248;-73
2021/07/23 04:10:49;;;;;;;11.60;7.23;;;14.00;99.90;;;;;;4971990;28;20196;-73
2021/07/23 04:13:15;;;;;;;8.27;7.27;;;14.00;99.90;;;;;;4972033;28;20220;-73
2021/07/23 04:15:40;;;;;;;8.47;7.07;;;14.00;99.90;;;;;;4972502;28;20201;-73
2021/07/23 04:18:06;;;;;;;8.70;7.23;;;14.00;99.90;;;;;;4972038;28;20181;-73
2021/07/23 04:20:31;;;;;;;10.17;7.90;;;14.00;99.90;;;;;;4973081;28;20220;-73
2021/07/23 04:22:57;;;;;;;11.53;7.73;;;14.00;99.90;;;;;;4973221;28;20188;-73
2021/07/23 04:25:23;;;;;;;10.23;7.37;;;14.00;99.90;;;;;;4972117;28;20224;-74
2021/07/23 04:27:48;;;;;;;8.10;7.03;;;14.00;99.90;;;;;;4972385;28;20576;-74
2021/07/23 04:30:16;;;;;;;8.13;7.20;;;14.00;99.90;;;;;;4971791;28;20181;-73
2021/07/23 04:32:41;;;;;;;13.13;7.77;;;14.00;99.90;;;;;;4971856;28;20188;-72
2021/07/23 04:35:07;;;;;;;10.47;7.87;;;14.00;99.90;;;;;;4971641;28;20185;-73
2021/07/23 04:37:33;;;;;;;8.90;7.53;;;14.10;99.90;;;;;;4971654;28;20184;-73
2021/07/23 04:39:59;;;;;;;8.97;7.27;;;14.10;99.90;;;;;;4955313;28;20205;-72
2021/07/23 04:42:24;;;;;;;9.47;7.90;;;14.20;99.90;;;;;;4972854;28;20219;-71
2021/07/23 04:44:50;;;;;;;11.10;7.43;;;14.10;99.90;;;;;;4971734;28;20177;-72
2021/07/23 04:47:15;;;;;;;9.37;7.27;;;14.20;99.90;;;;;;4972763;28;20205;-73
2021/07/23 04:49:41;;;;;;;13.87;8.17;;;14.20;99.90;;;;;;4973030;28;20177;-73
2021/07/23 04:52:06;;;;;;;9.67;7.17;;;14.30;99.90;;;;;;4971992;28;20192;-73
2021/07/23 04:54:32;;;;;;;8.23;7.07;;;14.20;99.90;;;;;;4971922;28;20194;-73
2021/07/23 04:56:58;;;;;;;11.67;7.50;;;14.30;99.90;;;;;;4971845;28;20639;-73
2021/07/23 04:59:24;;;;;;;10.93;7.43;;;14.30;99.90;;;;;;4972930;28;20224;-73
2021/07/23 05:01:49;;;;;;;9.97;7.80;;;14.40;99.90;;;;;;4972034;28;20613;-73
2021/07/23 05:04:16;;;;;;;10.10;7.53;;;14.40;99.90;;;;;;4971962;28;20181;-73
2021/07/23 05:06:41;;;;;;;9.70;7.63;;;14.50;99.90;;;;;;4955753;28;20719;-73
2021/07/23 05:09:07;;;;;;;9.10;7.27;;;14.50;99.90;;;;;;4971546;28;20180;-73
2021/07/23 05:11:33;;;;;;;9.47;7.57;;;14.50;99.90;;;;;;4972018;28;20184;-73
2021/07/23 05:13:59;;;;;;;9.57;7.33;;;14.60;99.90;;;;;;4971781;28;20633;-73
2021/07/23 05:16:25;;;;;;;10.73;6.93;;;14.70;99.90;;;;;;4971738;28;20287;-73
2021/07/23 05:18:50;;;;;;;10.23;7.40;;;14.80;99.90;;;;;;4955460;28;20280;-73
2021/07/23 05:21:16;;;;;;;10.93;6.70;;;14.90;99.90;;;;;;4971701;28;20243;-73
2021/07/23 05:23:42;;;;;;;12.13;6.60;;;14.90;99.90;;;;;;4972815;28;20181;-76
2021/07/23 05:26:08;;;;;;;9.73;7.07;;;15.00;99.90;;;;;;4973562;28;20209;-76
2021/07/23 05:28:34;;;;;;;11.20;7.00;;;15.10;99.90;;;;;;4974512;28;20403;-75
2021/07/23 05:30:59;;;;;;;9.03;6.70;;;15.20;99.90;;;;;;4975623;28;20177;-75
2021/07/23 05:33:25;;;;;;;8.23;6.77;;;15.30;99.90;;;;;;4975965;28;20260;-75
2021/07/23 05:35:51;;;;;;;7.90;5.67;;;15.40;99.90;;;;;;4975465;28;20717;-76
2021/07/23 05:38:16;;;;;;;8.10;5.50;;;15.50;99.90;;;;;;4976705;28;20602;-75
2021/07/23 05:40:42;;;;;;;7.70;5.77;;;15.60;99.90;;;;;;4975181;28;20220;-75
2021/07/23 05:43:13;;;;;;;8.43;5.70;;;15.70;99.90;;;;;;4971902;28;20216;-75
2021/07/23 05:45:39;;;;;;;9.40;5.17;;;15.90;99.90;;;;;;4955753;29;20264;-75
2021/07/23 05:48:05;;;;;;;8.57;5.33;;;16.10;99.90;;;;;;4956023;29;20185;-75
2021/07/23 05:50:31;;;;;;;7.50;5.40;;;16.20;99.90;;;;;;4955750;28;20189;-75
2021/07/23 05:52:56;;;;;;;7.83;5.67;;;16.40;99.90;;;;;;4958248;28;20197;-76
2021/07/23 05:55:22;;;;;;;8.00;5.17;;;16.90;99.90;;;;;;4974834;28;20447;-75
2021/07/23 05:57:48;;;;;;;8.80;5.87;;;17.40;99.90;;;;;;4975153;28;20292;-75
2021/07/23 06:00:14;;;;;;;9.37;5.60;;;17.90;99.90;;;;;;4974736;28;20211;-75
2021/07/23 06:02:40;;;;;;;8.23;5.03;;;18.40;99.90;;;;;;4976050;28;20648;-75
2021/07/23 06:05:06;;;;;;;16.67;10.80;;;18.70;99.90;;;;;;4974663;28;20185;-75
2021/07/23 06:07:32;;;;;;;7.77;5.83;;;18.90;99.90;;;;;;4975959;28;20188;-75
2021/07/23 06:09:57;;;;;;;6.27;5.10;;;18.90;99.90;;;;;;4974115;28;20196;-75
2021/07/23 06:12:23;;;;;;;7.67;4.93;;;18.90;99.90;;;;;;4959110;28;20193;-74
2021/07/23 06:14:48;;;;;;;6.93;4.70;;;19.10;99.90;;;;;;4971593;28;20245;-75
2021/07/23 06:17:14;;;;;;;8.13;4.73;;;19.40;99.90;;;;;;4955270;29;20208;-75
2021/07/23 06:19:41;;;;;;;6.80;4.60;;;19.90;99.90;;;;;;4939285;29;20697;-75
2021/07/23 06:22:06;;;;;;;6.27;4.47;;;20.10;99.90;;;;;;4955344;29;20181;-75
2021/07/23 06:24:33;;;;;;;4.47;3.90;;;20.60;99.90;;;;;;4955220;29;20712;-75
2021/07/23 06:26:58;;;;;;;6.47;3.67;;;20.80;99.90;;;;;;4940133;28;20198;-74
2021/07/23 06:29:24;;;;;;;5.80;3.47;;;20.60;99.90;;;;;;4973604;28;20212;-74
2021/07/23 06:31:49;;;;;;;4.53;3.43;;;20.30;99.90;;;;;;4975599;28;20559;-73
2021/07/23 06:34:15;;;;;;;6.03;3.53;;;20.00;99.90;;;;;;4974183;28;20715;-74
2021/07/23 06:36:41;;;;;;;4.57;3.30;;;19.80;99.90;;;;;;4957375;28;20224;-74
2021/07/23 06:39:06;;;;;;;4.40;3.43;;;19.70;99.90;;;;;;4974840;28;20177;-73
2021/07/23 06:41:32;;;;;;;5.63;3.37;;;19.50;99.90;;;;;;4974201;28;20236;-73
2021/07/23 06:43:58;;;;;;;6.23;3.23;;;19.40;99.90;;;;;;4974234;28;20173;-73
2021/07/23 06:46:23;;;;;;;6.33;3.03;;;19.40;99.90;;;;;;4974005;28;20564;-73
2021/07/23 06:48:49;;;;;;;5.37;2.60;;;19.40;99.90;;;;;;4973812;28;20174;-73
2021/07/23 06:51:14;;;;;;;4.57;2.63;;;19.50;99.90;;;;;;4973838;28;20696;-74
2021/07/23 06:53:40;;;;;;;5.80;2.57;;;19.80;99.90;;;;;;4957919;28;20187;-74
2021/07/23 06:56:05;;;;;;;5.60;3.40;;;19.80;99.90;;;;;;4975070;28;20207;-75
2021/07/23 06:58:31;;;;;;;4.93;3.00;;;19.70;99.90;;;;;;4957715;28;20262;-75
2021/07/23 07:01:06;;;;;;;3.63;2.87;;;19.80;99.90;;;;;;4973382;28;20667;-75
2021/07/23 07:03:32;;;;;;;4.70;2.77;;;19.80;99.90;;;;;;4973875;28;20169;-75
2021/07/23 07:05:58;;;;;;;4.87;2.67;;;20.00;99.90;;;;;;4957624;28;20660;-74
2021/07/23 07:08:24;;;;;;;4.23;2.53;;;20.30;99.90;;;;;;4973714;28;20169;-73
2021/07/23 07:10:50;;;;;;;2.40;2.03;;;20.30;99.90;;;;;;4973364;28;20251;-73
2021/07/23 07:13:15;;;;;;;5.13;2.83;;;20.30;99.90;;;;;;4973582;28;20192;-75
2021/07/23 07:15:41;;;;;;;4.13;2.17;;;20.30;99.90;;;;;;4973207;28;20680;-73
2021/07/23 07:18:06;;;;;;;5.40;2.10;;;20.40;99.90;;;;;;4973385;28;20653;-74
2021/07/23 07:20:33;;;;;;;3.17;1.90;;;20.50;99.90;;;;;;4956843;28;20248;-74
2021/07/23 07:22:59;;;;;;;4.93;2.17;;;20.60;99.90;;;;;;4973418;28;20223;-74
2021/07/23 07:25:24;;;;;;;2.87;2.13;;;20.60;99.90;;;;;;4973233;28;20537;-74
2021/07/23 07:27:50;;;;;;;4.03;2.17;;;20.60;99.90;;;;;;4973382;28;20726;-77
2021/07/23 07:30:16;;;;;;;4.23;2.30;;;20.60;99.90;;;;;;4972910;28;20177;-74
2021/07/23 07:32:41;;;;;;;4.13;2.40;;;20.70;99.90;;;;;;4972644;28;20259;-74
2021/07/23 07:35:08;;;;;;;4.13;2.10;;;20.90;99.90;;;;;;4973261;28;20288;-75
2021/07/23 07:37:33;;;;;;;3.80;2.23;;;21.00;99.90;;;;;;4956964;28;20193;-75
2021/07/23 07:39:59;;;;;;;3.77;2.30;;;21.10;99.90;;;;;;4957464;28;20208;-74
2021/07/23 07:42:25;;;;;;;4.07;2.20;;;21.10;99.90;;;;;;4941004;29;20182;-75
2021/07/23 07:44:50;;;;;;;4.83;2.50;;;21.00;99.90;;;;;;4935145;29;20188;-76
2021/07/23 07:47:16;;;;;;;3.93;2.50;;;21.00;99.90;;;;;;4946554;28;20220;-75
2021/07/23 07:49:42;;;;;;;4.70;3.20;;;21.00;99.90;;;;;;4972237;28;20803;-75
2021/07/23 07:52:07;;;;;;;5.60;2.63;;;21.20;99.90;;;;;;4956931;28;20201;-75
2021/07/23 07:54:33;;;;;;;5.27;2.60;;;21.00;99.90;;;;;;4973274;28;20220;-75
2021/07/23 07:57:06;;;;;;;19.53;3.13;;;20.90;99.90;;;;;;4973149;28;20268;-75
2021/07/23 07:59:31;;;;;;;5.27;2.77;;;20.70;99.90;;;;;;4972970;28;20164;-74
2021/07/23 08:01:57;;;;;;;3.63;2.43;;;20.80;99.90;;;;;;4974184;28;20706;-75
2021/07/23 08:04:22;;;;;;;5.13;3.03;;;20.80;99.90;;;;;;4973219;28;20550;-75
2021/07/23 08:06:48;;;;;;;3.57;2.40;;;21.00;99.90;;;;;;4973906;28;20546;-75
2021/07/23 08:09:15;;;;;;;4.50;2.53;;;21.30;99.90;;;;;;4972623;28;20529;-76
2021/07/23 08:11:41;;;;;;;4.60;2.83;;;21.40;99.90;;;;;;4956612;28;20172;-74
2021/07/23 08:14:06;;;;;;;4.17;2.70;;;21.40;99.90;;;;;;4972418;28;20192;-74
2021/07/23 08:16:32;;;;;;;4.07;2.70;;;21.50;99.90;;;;;;4972428;28;20719;-73
2021/07/23 08:19:01;;;;;;;4.63;2.50;;;21.50;99.90;;;;;;4972260;28;20209;-74
2021/07/23 08:21:28;;;;;;;4.63;3.07;;;21.50;99.90;;;;;;4972198;28;20212;-74
2021/07/23 08:23:54;;;;;;;4.43;2.80;;;21.50;99.90;;;;;;4972350;28;20184;-74
2021/07/23 08:26:19;;;;;;;7.33;2.90;;;21.50;99.90;;;;;;4972311;28;20192;-74
2021/07/23 08:28:45;;;;;;;4.23;3.00;;;21.60;99.90;;;;;;4972038;28;20173;-74
2021/07/23 08:31:11;;;;;;;6.17;3.17;;;21.60;99.90;;;;;;4972314;28;20272;-74
2021/07/23 08:33:36;;;;;;;4.43;3.27;;;21.70;99.90;;;;;;4972183;28;20177;-75
2021/07/23 08:36:03;;;;;;;4.57;3.03;;;21.90;99.90;;;;;;4972087;28;20251;-74
2021/07/23 08:38:28;;;;;;;3.10;2.80;;;21.80;99.90;;;;;;4973431;28;20676;-74
2021/07/23 08:40:54;;;;;;;6.13;3.10;;;21.90;99.90;;;;;;4955718;28;20325;-74
2021/07/23 08:43:19;;;;;;;4.73;2.90;;;21.90;99.90;;;;;;4955977;28;20173;-74
2021/07/23 08:45:45;;;;;;;4.77;3.00;;;22.10;99.90;;;;;;4972076;28;20208;-75
2021/07/23 08:48:10;;;;;;;3.40;2.37;;;22.10;99.90;;;;;;4971972;28;20550;-75
2021/07/23 08:50:37;;;;;;;6.03;3.07;;;22.10;99.90;;;;;;4971970;28;20224;-75
2021/07/23 08:53:09;;;;;;;6.13;3.10;;;22.00;99.90;;;;;;4972337;28;20275;-76
2021/07/23 08:55:35;;;;;;;4.00;2.80;;;22.00;99.90;;;;;;4972411;28;20192;-75
2021/07/23 08:58:00;;;;;;;3.70;3.20;;;21.70;99.90;;;;;;4955861;28;20192;-74
2021/07/23 09:00:27;;;;;;;5.20;3.03;;;21.70;99.90;;;;;;4973571;28;20672;-73
2021/07/23 09:02:56;;;;;;;4.03;2.60;;;21.60;99.90;;;;;;4976001;28;20655;-73
2021/07/23 09:05:29;;;;;;;3.00;2.33;;;21.60;99.90;;;;;;4976027;28;20197;-74
2021/07/23 09:07:58;;;;;;;3.43;2.60;;;21.40;99.90;;;;;;4975929;28;20691;-74
2021/07/23 09:10:26;;;;;;;3.97;2.90;;;21.50;99.90;;;;;;4975490;28;20232;-74
2021/07/23 09:12:52;;;;;;;4.13;2.87;;;21.60;99.90;;;;;;4975625;28;20195;-73
2021/07/23 09:15:22;;;;;;;3.80;3.00;;;21.50;99.90;;;;;;4975310;28;20173;-74
2021/07/23 09:17:47;;;;;;;4.27;2.80;;;21.60;99.90;;;;;;4975667;28;20204;-74
2021/07/23 09:20:13;;;;;;;3.40;2.67;;;21.60;99.90;;;;;;4975384;28;20228;-74
2021/07/23 09:22:43;;;;;;;4.00;2.70;;;21.60;99.90;;;;;;4959417;28;20184;-74
2021/07/23 09:25:09;;;;;;;5.67;2.73;;;21.70;99.90;;;;;;4976264;28;20177;-74
2021/07/23 09:27:35;;;;;;;3.83;2.67;;;21.60;99.90;;;;;;4975390;28;20208;-74
2021/07/23 09:30:06;;;;;;;3.23;2.37;;;21.60;99.90;;;;;;4975186;28;20181;-74
2021/07/23 09:32:31;;;;;;;4.27;2.93;;;21.70;99.90;;;;;;4975545;28;20241;-74
2021/07/23 09:35:13;;;;;;;5.87;3.20;;;21.70;99.90;;;;;;4958947;28;20656;-74
2021/07/23 09:37:55;;;;;;;4.23;2.60;;;21.80;99.90;;;;;;4975201;28;20260;-74
2021/07/23 09:40:21;;;;;;;5.40;3.00;;;21.80;99.90;;;;;;4975202;28;20197;-74
2021/07/23 09:42:57;;;;;;;4.40;2.90;;;21.80;99.90;;;;;;4974970;28;20256;-74
2021/07/23 09:45:30;;;;;;;4.17;2.70;;;21.80;99.90;;;;;;4958862;28;20280;-74
2021/07/23 09:48:09;;;;;;;3.97;2.67;;;21.90;99.90;;;;;;4975175;28;20670;-74
2021/07/23 09:50:39;;;;;;;4.73;2.73;;;22.00;99.90;;;;;;4974747;28;20173;-74
2021/07/23 09:53:07;;;;;;;3.60;2.80;;;22.10;99.90;;;;;;4974958;28;20209;-74
2021/07/23 09:55:33;;;;;;;4.00;2.73;;;22.10;99.90;;;;;;4974581;28;20208;-74
2021/07/23 09:57:58;;;;;;;3.70;2.70;;;22.00;99.90;;;;;;4974989;28;20264;-74
2021/07/23 10:00:24;;;;;;;5.23;2.97;;;21.90;99.90;;;;;;4974816;28;20529;-74
2021/07/23 10:02:50;;;;;;;4.50;2.90;;;21.90;99.90;;;;;;4958607;28;20188;-74
2021/07/23 10:05:15;;;;;;;4.87;2.67;;;22.10;99.90;;;;;;4974886;28;20177;-74
2021/07/23 10:08:04;;;;;;;4.33;2.40;;;22.10;99.90;;;;;;4974514;28;20200;-74
2021/07/23 10:10:29;;;;;;;4.47;2.80;;;22.10;99.90;;;;;;4974714;28;20173;-74
2021/07/23 10:12:55;;;;;;;4.00;2.63;;;22.10;99.90;;;;;;4973438;28;20301;-74
2021/07/23 10:15:21;;;;;;;4.60;3.43;;;22.10;99.90;;;;;;4974530;28;20328;-74
2021/07/23 10:17:46;;;;;;;3.63;3.10;;;22.10;99.90;;;;;;4974333;28;20195;-74
2021/07/23 10:20:13;;;;;;;5.40;2.97;;;22.00;99.90;;;;;;4958125;28;20803;-74
2021/07/23 10:22:39;;;;;;;3.87;2.63;;;21.90;99.90;;;;;;4974762;28;20200;-74
2021/07/23 10:25:05;;;;;;;3.07;2.50;;;22.00;99.90;;;;;;4974225;28;20224;-74
2021/07/23 10:27:30;;;;;;;4.10;2.80;;;22.00;99.90;;;;;;4958044;28;20212;-72
2021/07/23 10:29:56;;;;;;;4.27;2.10;;;22.10;99.90;;;;;;4958091;28;20621;-72
2021/07/23 10:32:27;;;;;;;3.23;2.60;;;22.10;99.90;;;;;;4974529;28;20180;-72
2021/07/23 10:35:15;;;;;;;5.13;2.80;;;22.10;99.90;;;;;;4976332;28;20549;-72
2021/07/23 10:37:43;;;;;;;5.60;2.63;;;22.20;99.90;;;;;;4974647;28;20236;-72
2021/07/23 10:40:09;;;;;;;3.53;2.73;;;22.20;99.90;;;;;;4974874;28;20546;-72
2021/07/23 10:42:35;;;;;;;3.90;2.80;;;22.40;99.90;;;;;;4975178;28;20191;-72
2021/07/23 10:45:04;;;;;;;3.67;2.63;;;22.60;99.90;;;;;;4973048;28;20227;-72
2021/07/23 10:47:37;;;;;;;6.17;2.67;;;22.60;99.90;;;;;;4973631;28;20566;-72
2021/07/23 10:50:08;;;;;;;5.00;3.00;;;22.60;99.90;;;;;;4968266;28;20177;-72
2021/07/23 10:52:36;;;;;;;4.70;3.20;;;22.60;99.90;;;;;;4973683;28;20258;-72
2021/07/23 10:55:13;;;;;;;4.33;2.90;;;22.50;99.90;;;;;;4957992;28;20264;-76
2021/07/23 10:57:39;;;;;;;3.50;2.57;;;22.50;99.90;;;;;;4975241;28;20215;-76
2021/07/23 11:00:06;;;;;;;3.77;3.17;;;22.50;99.90;;;;;;4973612;28;20212;-77
2021/07/23 11:02:31;;;;;;;4.20;2.77;;;22.50;99.90;;;;;;4973678;28;20181;-76
2021/07/23 11:05:04;;;;;;;3.80;2.30;;;22.50;99.90;;;;;;4975073;28;20223;-76
2021/07/23 11:07:29;;;;;;;5.30;2.53;;;22.50;99.90;;;;;;4973894;28;20196;-76
2021/07/23 11:09:55;;;;;;;4.33;2.80;;;22.60;99.90;;;;;;4973708;28;20213;-76
2021/07/23 11:12:32;;;;;;;4.60;2.60;;;22.70;99.90;;;;;;4973718;28;20173;-77
2021/07/23 11:14:58;;;;;;;5.27;4.17;;;22.80;99.90;;;;;;4973818;28;20162;-77
2021/07/23 11:17:24;;;;;;;5.53;3.47;;;22.90;99.90;;;;;;4973612;28;20207;-76
2021/07/23 11:20:02;;;;;;;3.40;2.93;;;23.00;99.90;;;;;;4973245;28;20176;-76
2021/07/23 11:22:36;;;;;;;4.10;2.80;;;23.00;99.90;;;;;;4957402;28;20177;-76
2021/07/23 11:25:05;;;;;;;4.80;2.63;;;23.10;99.90;;;;;;4973106;28;20161;-76
2021/07/23 11:27:38;;;;;;;4.07;2.67;;;23.10;99.90;;;;;;4973448;28;20180;-76
2021/07/23 11:30:20;;;;;;;4.50;2.70;;;23.00;99.90;;;;;;4973197;28;20184;-76
2021/07/23 11:32:55;;;;;;;3.50;2.57;;;23.00;99.90;;;;;;4973337;28;20180;-76
2021/07/23 11:35:28;;;;;;;2.30;2.10;;;22.90;99.90;;;;;;4972719;28;20177;-77
2021/07/23 11:37:54;;;;;;;4.83;2.73;;;22.90;99.90;;;;;;4948579;29;20177;-76
2021/07/23 11:40:22;;;;;;;3.92;2.58;;;23.00;99.90;;;;;;4952822;29;20198;-76
2021/07/23 11:42:51;;;;;;;3.23;2.67;;;23.10;99.90;;;;;;4953330;29;20284;-76
2021/07/23 11:45:32;;;;;;;3.73;2.77;;;23.30;99.90;;;;;;4953348;29;20224;-76
2021/07/23 11:48:09;;;;;;;4.87;2.50;;;23.30;99.90;;;;;;4965985;28;20176;-77
2021/07/23 11:50:35;;;;;;;4.73;2.60;;;23.40;99.90;;;;;;4940069;28;20229;-76
2021/07/23 11:53:02;;;;;;;4.00;2.80;;;23.50;99.90;;;;;;4972850;28;20535;-76
2021/07/23 11:55:38;;;;;;;5.33;2.70;;;23.50;99.90;;;;;;4972681;28;20201;-77
2021/07/23 11:58:04;;;;;;;3.63;2.67;;;23.30;99.90;;;;;;4972848;28;20177;-76
2021/07/23 12:00:30;;;;;;;2.93;2.57;;;23.30;99.90;;;;;;4956214;28;20208;-76
2021/07/23 12:02:56;;;;;;;3.43;2.60;;;23.20;99.90;;;;;;4972750;28;20165;-76
2021/07/23 12:05:22;;;;;;;3.97;2.90;;;23.20;99.90;;;;;;4972632;28;20204;-77
2021/07/23 12:08:00;;;;;;;4.30;2.70;;;23.10;99.90;;;;;;4972447;28;20174;-76
2021/07/23 12:10:27;;;;;;;3.93;2.37;;;23.10;99.90;;;;;;4955987;28;20184;-77
2021/07/23 12:12:52;;;;;;;3.03;2.15;;;23.30;99.90;;;;;;4972451;28;20329;-76
2021/07/23 12:15:19;;;;;;;3.20;2.30;;;23.40;99.90;;;;;;4972301;28;20177;-77
2021/07/23 12:17:46;;;;;;;5.33;2.43;;;23.50;99.90;;;;;;4972523;28;20641;-77
2021/07/23 12:20:13;;;;;;;4.43;2.37;;;23.60;99.90;;;;;;4971964;28;20752;-76
2021/07/23 12:22:38;;;;;;;3.07;2.30;;;23.60;99.90;;;;;;4972212;28;20176;-77
2021/07/23 12:25:20;;;;;;;2.95;2.30;;;23.60;99.90;;;;;;4955875;28;20633;-77
2021/07/23 12:27:46;;;;;;;4.37;2.37;;;23.70;99.90;;;;;;4972313;28;20200;-76
2021/07/23 12:30:12;;;;;;;4.53;2.30;;;23.70;99.90;;;;;;4972079;28;20256;-77
2021/07/23 12:32:37;;;;;;;2.50;2.20;;;23.60;99.90;;;;;;4971696;28;20192;-77
2021/07/23 12:35:03;;;;;;;2.38;2.03;;;23.60;99.90;;;;;;4971570;28;20187;-76
2021/07/23 12:37:29;;;;;;;2.73;2.10;;;23.60;99.90;;;;;;4955777;28;20188;-77
2021/07/23 12:40:01;;;;;;;3.03;2.27;;;23.60;99.90;;;;;;4939115;29;20582;-76
2021/07/23 12:42:27;;;;;;;3.60;2.33;;;23.60;99.90;;;;;;4952676;29;20170;-76